Latest Weather Observations for Hay Point

IDQ60801

Issued at 11:32 am EST Friday 29 July 2016 (issued every 30 minutes, with the page automatically refreshed every 10 minutes)

About weather observations | Map of weather stations | Latest weather observations for QLD | Other Formats
Station Details ID: 033317 Name: HAY POINT Lat: -21.29 Lon: 149.30 Height: 7.0 m
Data from the previous 72 hours. | See also: Recent months for locations in Queensland
Date/Time
EST
Temp
°C
App
Temp
°C
Dew
Point
°C
Rel
Hum
%
Delta-T
°C
Wind Press
QNH
hPa
Press
MSL
hPa
Rain since
9am
mm
Dir  Spd
km/h
Gust
km/h
Spd
kts
Gust
kts
29/11:30am - - - - - SSE 35 41 19 22 - - -
29/11:00am - - - - - SSE 39 46 21 25 - - -
29/10:30am - - - - - SSE 43 50 23 27 - - -
29/10:00am - - - - - SSE 37 48 20 26 - - -
29/09:30am - - - - - S 30 39 16 21 - - -
29/09:00am - - - - - S 30 39 16 21 - - -
29/08:30am - - - - - S 30 37 16 20 - - -
29/08:00am - - - - - S 30 37 16 20 - - -
29/07:30am - - - - - S 28 33 15 18 - - -
29/07:00am - - - - - S 28 33 15 18 - - -
29/06:30am - - - - - S 26 32 14 17 - - -
29/06:00am - - - - - S 24 30 13 16 - - -
29/05:30am - - - - - S 24 30 13 16 - - -
29/05:00am - - - - - SSW 20 28 11 15 - - -
29/04:30am - - - - - SSW 20 28 11 15 - - -
29/04:00am - - - - - SSW 20 26 11 14 - - -
29/03:30am - - - - - SSW 19 26 10 14 - - -
29/03:00am - - - - - SSW 19 26 10 14 - - -
29/02:30am - - - - - SSW 19 24 10 13 - - -
29/02:00am - - - - - S 22 30 12 16 - - -
29/01:30am - - - - - SSW 26 35 14 19 - - -
29/01:00am - - - - - S 26 32 14 17 - - -
29/12:30am - - - - - SSW 20 30 11 16 - - -
29/12:00am - - - - - SSW 15 20 8 11 - - -
 
Date/Time
EST
Temp
°C
App
Temp
°C
Dew
Point
°C
Rel
Hum
%
Delta-T
°C
Wind Press
QNH
hPa
Press
MSL
hPa
Rain since
9am
mm
Dir  Spd
km/h
Gust
km/h
Spd
kts
Gust
kts
28/11:30pm - - - - - S 17 20 9 11 - - -
28/11:00pm - - - - - SSW 17 20 9 11 - - -
28/10:30pm - - - - - SW 15 19 8 10 - - -
28/10:00pm - - - - - S 15 20 8 11 - - -
28/09:30pm - - - - - S 15 19 8 10 - - -
28/09:00pm - - - - - S 17 20 9 11 - - -
28/08:30pm - - - - - SSW 15 17 8 9 - - -
28/08:00pm - - - - - SSW 15 17 8 9 - - -
28/07:30pm - - - - - S 19 24 10 13 - - -
28/07:00pm - - - - - SSE 28 35 15 19 - - -
28/06:30pm - - - - - SE 30 37 16 20 - - -
28/06:00pm - - - - - SSE 32 37 17 20 - - -
28/05:30pm - - - - - SE 26 32 14 17 - - -
28/05:00pm - - - - - SE 28 33 15 18 - - -
28/04:30pm - - - - - SE 28 35 15 19 - - -
28/04:00pm - - - - - SE 28 37 15 20 - - -
28/03:30pm - - - - - SE 28 35 15 19 - - -
28/03:00pm - - - - - SE 30 37 16 20 - - -
28/02:30pm - - - - - SE 30 39 16 21 - - -
28/02:00pm - - - - - SE 28 39 15 21 - - -
28/01:30pm - - - - - SE 30 39 16 21 - - -
28/01:00pm - - - - - SE 35 46 19 25 - - -
28/12:30pm - - - - - SSE 41 52 22 28 - - -
28/12:00pm - - - - - SSE 43 52 23 28 - - -
28/11:30am - - - - - SSE 48 56 26 30 - - -
28/11:00am - - - - - SSE 46 54 25 29 - - -
28/10:30am - - - - - SSE 44 54 24 29 - - -
28/10:06am - - - - - SSE 32 50 17 27 - - -
28/10:00am - - - - - S 30 41 16 22 - - -
28/09:30am - - - - - S 33 44 18 24 - - -
28/09:00am - - - - - S 32 41 17 22 - - -
28/08:30am - - - - - S 32 39 17 21 - - -
28/08:00am - - - - - S 30 35 16 19 - - -
28/07:30am - - - - - S 30 37 16 20 - - -
28/07:00am - - - - - S 32 41 17 22 - - -
28/06:30am - - - - - S 32 37 17 20 - - -
28/06:00am - - - - - S 28 35 15 19 - - -
28/05:30am - - - - - S 30 39 16 21 - - -
28/05:00am - - - - - S 20 30 11 16 - - -
28/04:30am - - - - - SSW 17 22 9 12 - - -
28/04:00am - - - - - SSW 19 24 10 13 - - -
28/03:30am - - - - - S 22 30 12 16 - - -
28/03:00am - - - - - S 17 26 9 14 - - -
28/02:30am - - - - - SSW 19 26 10 14 - - -
28/02:00am - - - - - SSW 15 19 8 10 - - -
28/01:30am - - - - - S 22 28 12 15 - - -
28/01:00am - - - - - S 17 20 9 11 - - -
28/12:30am - - - - - S 19 26 10 14 - - -
28/12:00am - - - - - S 20 26 11 14 - - -
 
Date/Time
EST
Temp
°C
App
Temp
°C
Dew
Point
°C
Rel
Hum
%
Delta-T
°C
Wind Press
QNH
hPa
Press
MSL
hPa
Rain since
9am
mm
Dir  Spd
km/h
Gust
km/h
Spd
kts
Gust
kts
27/11:30pm - - - - - S 26 32 14 17 - - -
27/11:00pm - - - - - S 22 28 12 15 - - -
27/10:30pm - - - - - S 15 19 8 10 - - -
27/10:00pm - - - - - S 11 15 6 8 - - -
27/09:30pm - - - - - S 15 19 8 10 - - -
27/09:00pm - - - - - S 17 20 9 11 - - -
27/08:30pm - - - - - S 13 17 7 9 - - -
27/08:00pm - - - - - S 11 17 6 9 - - -
27/07:30pm - - - - - SSE 17 20 9 11 - - -
27/07:00pm - - - - - SSE 13 15 7 8 - - -
27/06:30pm - - - - - SE 15 17 8 9 - - -
27/06:00pm - - - - - SSE 17 20 9 11 - - -
27/05:30pm - - - - - SE 19 24 10 13 - - -
27/05:00pm - - - - - SE 17 20 9 11 - - -
27/04:30pm - - - - - SE 17 22 9 12 - - -
27/04:00pm - - - - - SE 19 24 10 13 - - -
27/03:30pm - - - - - SE 20 28 11 15 - - -
27/03:00pm - - - - - ESE 24 28 13 15 - - -
27/02:30pm - - - - - SE 20 28 11 15 - - -
27/02:00pm - - - - - SE 22 30 12 16 - - -
27/01:30pm - - - - - SE 19 26 10 14 - - -
27/01:00pm - - - - - SSE 20 28 11 15 - - -
27/12:30pm - - - - - SSE 20 24 11 13 - - -
27/12:00pm - - - - - SE 20 26 11 14 - - -
27/11:30am - - - - - SE 15 19 8 10 - - -
27/11:00am - - - - - SSE 19 22 10 12 - - -
27/10:30am - - - - - SSE 17 19 9 10 - - -
27/10:00am - - - - - SSE 13 17 7 9 - - -
27/09:30am - - - - - SSE 15 20 8 11 - - -
27/09:00am - - - - - S 15 19 8 10 - - -
27/08:30am - - - - - S 13 17 7 9 - - -
27/08:00am - - - - - SSW 13 15 7 8 - - -
27/07:30am - - - - - S 11 13 6 7 - - -
27/07:00am - - - - - SSW 13 17 7 9 - - -
27/06:30am - - - - - S 15 17 8 9 - - -
27/06:00am - - - - - S 17 22 9 12 - - -
27/05:30am - - - - - S 17 20 9 11 - - -
27/05:00am - - - - - SSW 15 19 8 10 - - -
27/04:30am - - - - - SSW 15 19 8 10 - - -
27/04:00am - - - - - S 13 15 7 8 - - -
27/03:30am - - - - - SSW 11 15 6 8 - - -
27/03:00am - - - - - SSW 15 19 8 10 - - -
27/02:30am - - - - - SSW 15 17 8 9 - - -
27/02:00am - - - - - SSW 17 19 9 10 - - -
27/01:30am - - - - - SSW 15 17 8 9 - - -
27/01:00am - - - - - SSW 13 15 7 8 - - -
27/12:30am - - - - - SSW 13 15 7 8 - - -
27/12:00am - - - - - SSW 15 17 8 9 - - -
 
Date/Time
EST
Temp
°C
App
Temp
°C
Dew
Point
°C
Rel
Hum
%
Delta-T
°C
Wind Press
QNH
hPa
Press
MSL
hPa
Rain since
9am
mm
Dir  Spd
km/h
Gust
km/h
Spd
kts
Gust
kts
26/11:30pm - - - - - SSW 13 19 7 10 - - -
26/11:00pm - - - - - SSW 11 15 6 8 - - -
26/10:30pm - - - - - SSW 15 17 8 9 - - -
26/10:00pm - - - - - S 17 20 9 11 - - -
26/09:30pm - - - - - SSW 13 15 7 8 - - -
26/09:00pm - - - - - SSE 19 20 10 11 - - -
26/08:30pm - - - - - SE 17 20 9 11 - - -
26/08:00pm - - - - - SE 17 20 9 11 - - -
26/07:30pm - - - - - SE 17 22 9 12 - - -
26/07:00pm - - - - - SE 19 24 10 13 - - -
26/06:30pm - - - - - SE 20 26 11 14 - - -
26/06:00pm - - - - - SE 17 24 9 13 - - -
26/05:30pm - - - - - SE 20 26 11 14 - - -
26/05:00pm - - - - - SE 19 24 10 13 - - -
26/04:30pm - - - - - SE 17 24 9 13 - - -
26/04:00pm - - - - - SE 20 26 11 14 - - -
26/03:30pm - - - - - SE 20 26 11 14 - - -
26/03:00pm - - - - - ESE 22 28 12 15 - - -
26/02:30pm - - - - - SE 20 26 11 14 - - -
26/02:00pm - - - - - ESE 20 26 11 14 - - -
26/01:30pm - - - - - SE 17 24 9 13 - - -
26/01:00pm - - - - - SE 17 24 9 13 - - -
26/12:30pm - - - - - SE 17 20 9 11 - - -
26/12:00pm - - - - - SE 19 24 10 13 - - -

Other Formats:

Comma delimited format used in spreadsheet applications
http://www.bom.gov.au/fwo/IDQ60801/IDQ60801.99367.axf

JavaScript Object Notation format (JSON) in row-major order
http://www.bom.gov.au/fwo/IDQ60801/IDQ60801.99367.json